Time;durP1;ratioP1;P1;durP2;ratioP2;P2;SDS_P1;SDS_P2;PMS_P1;PMS_P2;Temp;Humidity;BMP_temperature;BMP_pressure;BME280_temperature;BME280_humidity;BME280_pressure;Samples;Min_cycle;Max_cycle;Signal;HPM_P1;HPM_P2
2022/03/12 00:01:42;;;;;;;9.67;5.80;;;0.10;99.90;;;;;;6263511;28;20589;-74
2022/03/12 00:04:49;;;;;;;8.63;5.80;;;0.00;99.90;;;;;;6262884;28;20551;-74
2022/03/12 00:07:54;;;;;;;10.60;5.90;;;0.00;99.90;;;;;;6262875;28;20315;-74
2022/03/12 00:10:59;;;;;;;10.93;5.80;;;0.00;99.90;;;;;;6262363;28;20305;-74
2022/03/12 00:14:08;;;;;;;9.33;5.57;;;0.00;99.90;;;;;;6263205;28;20272;-74
2022/03/12 00:17:15;;;;;;;10.53;6.60;;;0.10;99.90;;;;;;6263111;28;20590;-74
2022/03/12 00:20:25;;;;;;;13.80;6.33;;;0.20;99.90;;;;;;6262399;28;20274;-74
2022/03/12 00:23:30;;;;;;;14.17;5.97;;;0.20;99.90;;;;;;6263104;28;20278;-74
2022/03/12 00:26:40;;;;;;;9.60;5.90;;;0.20;99.90;;;;;;6262150;28;20292;-74
2022/03/12 00:29:47;;;;;;;8.87;5.53;;;0.20;99.90;;;;;;6263087;28;20273;-75
2022/03/12 00:32:53;;;;;;;9.43;5.73;;;0.20;99.90;;;;;;6262018;28;20305;-74
2022/03/12 00:36:01;;;;;;;8.97;6.30;;;0.20;99.90;;;;;;6261803;28;20290;-74
2022/03/12 00:39:11;;;;;;;9.27;5.60;;;0.20;99.90;;;;;;6262333;28;20269;-74
2022/03/12 00:42:18;;;;;;;8.73;5.67;;;0.20;99.90;;;;;;6262084;28;20310;-74
2022/03/12 00:45:24;;;;;;;11.90;5.87;;;0.20;99.90;;;;;;6285772;28;20270;-75
2022/03/12 00:48:31;;;;;;;10.13;5.87;;;0.20;99.90;;;;;;6287742;28;20269;-74
2022/03/12 00:51:45;;;;;;;8.27;6.03;;;0.20;99.90;;;;;;6286545;28;20394;-75
2022/03/12 00:54:50;;;;;;;5.50;5.00;;;0.20;99.90;;;;;;6287216;28;20269;-74
2022/03/12 00:57:56;;;;;;;7.87;5.87;;;0.20;99.90;;;;;;6286901;28;20297;-74
2022/03/12 01:01:02;;;;;;;9.10;5.80;;;0.20;99.90;;;;;;6287131;28;20300;-74
2022/03/12 01:04:10;;;;;;;10.37;6.10;;;0.10;99.90;;;;;;6286686;28;20279;-74
2022/03/12 01:07:17;;;;;;;10.87;5.47;;;0.10;99.90;;;;;;6286203;28;20304;-75
2022/03/12 01:10:24;;;;;;;7.27;5.23;;;0.10;99.90;;;;;;6301658;28;20304;-75
2022/03/12 01:13:29;;;;;;;9.77;5.90;;;0.10;99.90;;;;;;6310732;28;20296;-74
2022/03/12 01:16:35;;;;;;;10.80;5.63;;;0.10;99.90;;;;;;6311377;28;20306;-75
2022/03/12 01:19:40;;;;;;;10.23;5.80;;;0.10;99.90;;;;;;6311461;28;20354;-74
2022/03/12 01:22:47;;;;;;;6.50;5.87;;;0.10;99.90;;;;;;6311323;28;20304;-74
2022/03/12 01:25:53;;;;;;;10.33;5.70;;;0.00;99.90;;;;;;6311063;28;20293;-75
2022/03/12 01:28:59;;;;;;;8.10;5.93;;;0.00;99.90;;;;;;6311619;28;20273;-74
2022/03/12 01:32:05;;;;;;;8.40;5.50;;;0.00;99.90;;;;;;6311014;28;20467;-74
2022/03/12 01:35:12;;;;;;;8.57;5.90;;;0.00;99.90;;;;;;6311430;28;20264;-75
2022/03/12 01:38:27;;;;;;;13.50;5.83;;;-0.10;99.90;;;;;;6311258;28;20273;-74
2022/03/12 01:41:34;;;;;;;9.83;5.80;;;-0.10;99.90;;;;;;6310462;28;20567;-74
2022/03/12 01:44:40;;;;;;;10.63;6.30;;;-0.20;99.90;;;;;;6292705;28;20272;-74
2022/03/12 01:47:46;;;;;;;7.17;5.57;;;-0.20;99.90;;;;;;6285584;28;20587;-74
2022/03/12 01:50:51;;;;;;;12.23;6.67;;;-0.10;99.90;;;;;;6285361;28;20299;-75
2022/03/12 01:53:58;;;;;;;8.07;4.90;;;-0.30;99.90;;;;;;6285685;28;20638;-74
2022/03/12 01:57:05;;;;;;;8.23;5.57;;;-0.30;99.90;;;;;;6285729;28;20297;-74
2022/03/12 02:00:24;;;;;;;7.87;5.60;;;-0.30;99.90;;;;;;6285171;28;20588;-74
2022/03/12 02:03:34;;;;;;;8.53;5.97;;;-0.20;99.90;;;;;;6327169;22;20502;-92
2022/03/12 02:06:45;;;;;;;10.67;5.87;;;-0.30;99.90;;;;;;6228036;23;20299;-75
2022/03/12 02:09:51;;;;;;;7.97;5.63;;;-0.30;99.90;;;;;;6195688;28;20268;-75
2022/03/12 02:12:56;;;;;;;8.63;5.63;;;-0.30;99.90;;;;;;6211648;28;20304;-75
2022/03/12 02:16:08;;;;;;;7.33;5.27;;;-0.30;99.90;;;;;;6211829;28;20384;-75
2022/03/12 02:19:13;;;;;;;9.63;5.13;;;-0.40;99.90;;;;;;6212423;28;20275;-75
2022/03/12 02:22:19;;;;;;;9.80;5.80;;;-0.40;99.90;;;;;;6211515;28;20318;-75
2022/03/12 02:25:31;;;;;;;9.60;5.77;;;-0.40;99.90;;;;;;6211067;28;20463;-75
2022/03/12 02:28:37;;;;;;;12.60;5.97;;;-0.50;99.90;;;;;;6216412;28;20274;-75
2022/03/12 02:31:47;;;;;;;9.73;5.97;;;-0.50;99.90;;;;;;6215837;28;20303;-75
2022/03/12 02:34:54;;;;;;;10.70;6.03;;;-0.40;99.90;;;;;;6216646;28;20274;-75
2022/03/12 02:38:00;;;;;;;13.13;5.87;;;-0.40;99.90;;;;;;6215973;28;20302;-75
2022/03/12 02:41:11;;;;;;;12.87;6.20;;;-0.40;99.90;;;;;;6215425;28;20303;-75
2022/03/12 02:44:20;;;;;;;17.27;6.10;;;-0.50;99.90;;;;;;6216175;28;20279;-75
2022/03/12 02:47:31;;;;;;;11.83;6.13;;;-0.30;99.90;;;;;;6215484;28;20302;-75
2022/03/12 02:50:37;;;;;;;9.97;5.90;;;-0.30;99.90;;;;;;6215930;28;20293;-75
2022/03/12 02:53:42;;;;;;;10.67;5.43;;;-0.20;99.90;;;;;;6215819;28;20302;-74
2022/03/12 02:56:50;;;;;;;13.73;5.97;;;-0.20;99.90;;;;;;6215359;28;20303;-75
2022/03/12 03:00:04;;;;;;;10.57;5.33;;;-0.20;99.90;;;;;;6215543;28;20271;-74
2022/03/12 03:03:14;;;;;;;7.23;5.37;;;-0.20;99.90;;;;;;6214884;28;20284;-75
2022/03/12 03:06:20;;;;;;;8.10;5.50;;;-0.20;99.90;;;;;;6215391;28;20299;-75
2022/03/12 03:09:25;;;;;;;8.53;5.33;;;-0.20;99.90;;;;;;6215743;28;20447;-75
2022/03/12 03:12:34;;;;;;;8.30;5.33;;;-0.10;99.90;;;;;;6215067;28;20309;-74
2022/03/12 03:15:40;;;;;;;8.90;4.80;;;-0.20;99.90;;;;;;6215055;28;20294;-75
2022/03/12 03:18:51;;;;;;;7.17;5.43;;;-0.20;99.90;;;;;;6215521;28;20277;-75
2022/03/12 03:21:58;;;;;;;11.63;5.70;;;-0.30;99.90;;;;;;6214742;28;20303;-74
2022/03/12 03:25:03;;;;;;;13.87;5.30;;;-0.30;99.90;;;;;;6214903;28;20274;-74
2022/03/12 03:28:13;;;;;;;10.97;6.20;;;-0.40;99.90;;;;;;6214682;28;20279;-74
2022/03/12 03:31:18;;;;;;;8.43;5.83;;;-0.50;99.90;;;;;;6214497;28;20305;-74
2022/03/12 03:34:25;;;;;;;12.23;6.63;;;-0.40;99.90;;;;;;6215184;28;20295;-74
2022/03/12 03:37:30;;;;;;;11.00;5.70;;;-0.50;99.90;;;;;;6214416;28;20298;-74
2022/03/12 03:40:36;;;;;;;10.30;6.00;;;-0.50;99.90;;;;;;6214592;28;20293;-74
2022/03/12 03:43:47;;;;;;;11.13;5.87;;;-0.60;99.90;;;;;;6214495;28;20563;-74
2022/03/12 03:46:53;;;;;;;6.60;5.13;;;-0.60;99.90;;;;;;6214605;28;20305;-74
2022/03/12 03:49:58;;;;;;;9.77;5.70;;;-0.70;99.90;;;;;;6214257;28;20273;-74
2022/03/12 03:53:04;;;;;;;13.03;5.57;;;-0.70;99.90;;;;;;6214166;28;20617;-74
2022/03/12 03:56:13;;;;;;;8.63;5.77;;;-0.70;99.90;;;;;;6214751;28;20302;-74
2022/03/12 03:59:20;;;;;;;10.40;5.63;;;-0.70;99.90;;;;;;6214401;28;20275;-74
2022/03/12 04:02:25;;;;;;;11.87;5.60;;;-0.70;99.90;;;;;;6211876;28;20469;-75
2022/03/12 04:05:32;;;;;;;16.17;6.13;;;-0.80;99.90;;;;;;6214180;28;20294;-74
2022/03/12 04:08:38;;;;;;;11.03;5.87;;;-0.80;99.90;;;;;;6213691;28;20301;-74
2022/03/12 04:11:43;;;;;;;16.50;5.83;;;-0.80;99.90;;;;;;6214400;28;20279;-74
2022/03/12 04:14:50;;;;;;;8.37;5.20;;;-0.80;99.90;;;;;;6213775;28;20306;-74
2022/03/12 04:17:57;;;;;;;8.03;5.50;;;-0.80;99.90;;;;;;6213364;28;20604;-74
2022/03/12 04:21:04;;;;;;;11.90;5.73;;;-0.90;99.90;;;;;;6214189;28;20274;-74
2022/03/12 04:24:10;;;;;;;7.93;5.17;;;-0.90;99.90;;;;;;6213509;28;20306;-74
2022/03/12 04:27:15;;;;;;;11.03;5.33;;;-0.90;99.90;;;;;;6213273;28;20333;-74
2022/03/12 04:30:22;;;;;;;8.30;5.47;;;-0.90;99.90;;;;;;6213725;28;20276;-74
2022/03/12 04:33:28;;;;;;;9.83;6.03;;;-0.90;99.90;;;;;;6213626;28;20296;-74
2022/03/12 04:36:36;;;;;;;9.27;5.40;;;-1.00;99.90;;;;;;6213553;28;20270;-75
2022/03/12 04:39:41;;;;;;;7.20;5.07;;;-1.00;99.90;;;;;;6213596;28;20305;-75
2022/03/12 04:42:47;;;;;;;8.83;5.17;;;-1.00;99.90;;;;;;6213391;28;20300;-75
2022/03/12 04:45:55;;;;;;;8.30;5.70;;;-1.00;99.90;;;;;;6213285;28;20284;-74
2022/03/12 04:49:00;;;;;;;9.87;5.47;;;-1.00;99.90;;;;;;6212588;28;20304;-75
2022/03/12 04:52:07;;;;;;;9.87;5.50;;;-1.00;99.90;;;;;;6212759;28;20277;-74
2022/03/12 04:55:16;;;;;;;9.33;5.50;;;-1.10;99.90;;;;;;6213705;28;20329;-74
2022/03/12 04:58:22;;;;;;;9.07;5.13;;;-1.20;99.90;;;;;;6212988;28;20606;-75
2022/03/12 05:01:29;;;;;;;9.77;5.50;;;-1.20;99.90;;;;;;6213293;28;20272;-74
2022/03/12 05:04:36;;;;;;;16.37;5.53;;;-1.20;99.90;;;;;;6212930;28;20301;-74
2022/03/12 05:07:45;;;;;;;7.40;5.00;;;-1.20;99.90;;;;;;6212638;28;20300;-75
2022/03/12 05:10:53;;;;;;;6.23;5.17;;;-1.10;99.90;;;;;;6213026;28;20266;-75
2022/03/12 05:14:04;;;;;;;7.90;5.80;;;-1.10;99.90;;;;;;6212691;28;20321;-74
2022/03/12 05:17:13;;;;;;;5.87;4.70;;;-1.20;99.90;;;;;;6212219;28;20276;-75
2022/03/12 05:20:22;;;;;;;7.57;5.40;;;-1.20;99.90;;;;;;6213221;28;20455;-74
2022/03/12 05:23:27;;;;;;;5.87;4.73;;;-1.10;99.90;;;;;;6212385;28;20318;-74
2022/03/12 05:26:33;;;;;;;10.07;4.70;;;-1.10;99.90;;;;;;6213342;28;20275;-74
2022/03/12 05:29:41;;;;;;;15.53;5.30;;;-1.20;99.90;;;;;;6212634;28;20297;-73
2022/03/12 05:32:48;;;;;;;8.40;5.20;;;-1.20;99.90;;;;;;6211539;28;20292;-74
2022/03/12 05:35:55;;;;;;;6.50;4.67;;;-1.20;99.90;;;;;;6212837;28;20292;-73
2022/03/12 05:39:00;;;;;;;12.37;5.10;;;-1.10;99.90;;;;;;6211872;28;20306;-74
2022/03/12 05:42:08;;;;;;;9.47;5.03;;;-1.10;99.90;;;;;;6210375;28;20276;-74
2022/03/12 05:45:14;;;;;;;9.27;4.60;;;-1.10;99.90;;;;;;6212388;28;20277;-74
2022/03/12 05:48:23;;;;;;;7.67;4.53;;;-1.10;99.90;;;;;;6211843;28;20304;-74
2022/03/12 05:51:31;;;;;;;5.20;4.60;;;-1.00;99.90;;;;;;6212713;28;20273;-74
2022/03/12 05:54:37;;;;;;;7.77;5.47;;;-1.00;99.90;;;;;;6211532;28;20304;-74
2022/03/12 05:57:43;;;;;;;13.50;4.90;;;-1.00;99.90;;;;;;6211997;28;20298;-74
2022/03/12 06:00:52;;;;;;;7.70;5.17;;;-0.90;99.90;;;;;;6214344;28;20272;-74
2022/03/12 06:04:00;;;;;;;5.10;4.43;;;-0.90;99.90;;;;;;6216414;28;20294;-74
2022/03/12 06:07:06;;;;;;;10.83;5.57;;;-0.90;99.90;;;;;;6216174;28;20301;-74
2022/03/12 06:10:16;;;;;;;9.83;4.60;;;-0.80;99.90;;;;;;6216484;28;20450;-74
2022/03/12 06:13:23;;;;;;;9.20;4.37;;;-0.80;99.90;;;;;;6216931;28;20301;-74
2022/03/12 06:16:29;;;;;;;7.03;4.40;;;-0.70;99.90;;;;;;6217419;28;20305;-74
2022/03/12 06:19:36;;;;;;;9.70;4.30;;;-0.60;99.90;;;;;;6217047;28;20308;-74
2022/03/12 06:22:43;;;;;;;6.70;4.43;;;-0.50;99.90;;;;;;6216387;28;20298;-75
2022/03/12 06:25:49;;;;;;;5.40;4.27;;;-0.40;99.90;;;;;;6216852;28;20281;-74
2022/03/12 06:28:55;;;;;;;10.33;3.80;;;-0.40;99.90;;;;;;6216581;28;20429;-75
2022/03/12 06:32:00;;;;;;;8.70;4.53;;;-0.30;99.90;;;;;;6215695;28;20277;-75
2022/03/12 06:35:09;;;;;;;4.77;3.60;;;-0.30;99.90;;;;;;6216532;28;20556;-75
2022/03/12 06:38:18;;;;;;;6.20;4.13;;;-0.20;99.90;;;;;;6216141;28;20306;-75
2022/03/12 06:41:23;;;;;;;11.80;4.27;;;-0.20;99.90;;;;;;6216507;28;20270;-75
2022/03/12 06:44:32;;;;;;;6.17;3.70;;;-0.10;99.90;;;;;;6216298;28;20479;-75
2022/03/12 06:47:39;;;;;;;4.67;4.03;;;0.00;99.90;;;;;;6215894;28;20298;-75
2022/03/12 06:50:46;;;;;;;9.30;4.23;;;0.00;99.90;;;;;;6216257;28;20275;-75
2022/03/12 06:53:52;;;;;;;10.43;4.70;;;0.20;99.90;;;;;;6215310;28;20311;-75
2022/03/12 06:57:03;;;;;;;7.40;3.97;;;0.20;99.90;;;;;;6230419;28;20298;-75
2022/03/12 07:00:16;;;;;;;8.20;4.30;;;0.30;99.90;;;;;;6215719;28;20271;-75
2022/03/12 07:03:21;;;;;;;11.47;4.17;;;0.40;99.90;;;;;;6215166;28;20562;-75
2022/03/12 07:06:29;;;;;;;6.87;3.60;;;0.50;99.90;;;;;;6216125;28;20326;-75
2022/03/12 07:09:35;;;;;;;7.77;3.80;;;0.50;99.90;;;;;;6215519;28;20299;-74
2022/03/12 07:12:44;;;;;;;15.60;4.60;;;0.50;99.90;;;;;;6214110;28;20298;-74
2022/03/12 07:15:50;;;;;;;7.93;3.97;;;0.70;99.90;;;;;;6215571;28;20274;-75
2022/03/12 07:18:56;;;;;;;13.20;4.00;;;0.70;99.90;;;;;;6214785;28;20303;-74
2022/03/12 07:22:03;;;;;;;5.23;4.30;;;0.80;99.90;;;;;;6215141;28;20280;-75
2022/03/12 07:25:13;;;;;;;10.63;4.30;;;0.80;99.90;;;;;;6215406;28;20276;-75
2022/03/12 07:28:19;;;;;;;10.20;4.47;;;0.80;99.90;;;;;;6214972;28;20298;-75
2022/03/12 07:31:24;;;;;;;11.53;3.83;;;0.90;99.90;;;;;;6215034;28;20276;-75
2022/03/12 07:34:31;;;;;;;15.60;4.80;;;0.90;99.90;;;;;;6215046;28;20606;-75
2022/03/12 07:37:37;;;;;;;17.67;4.03;;;0.90;99.90;;;;;;6214550;28;20474;-74
2022/03/12 07:40:43;;;;;;;7.53;3.60;;;1.00;99.90;;;;;;6214950;28;20281;-75
2022/03/12 07:43:49;;;;;;;14.07;4.60;;;1.00;99.90;;;;;;6214841;28;20300;-75
2022/03/12 07:46:54;;;;;;;4.57;3.70;;;1.00;99.90;;;;;;6214274;28;20278;-75
2022/03/12 07:50:00;;;;;;;9.47;3.50;;;1.10;99.90;;;;;;6214684;28;20284;-75
2022/03/12 07:53:06;;;;;;;9.27;4.03;;;1.20;99.60;;;;;;6214147;28;20300;-74
2022/03/12 07:56:12;;;;;;;10.53;4.00;;;1.20;99.90;;;;;;6214288;28;20464;-74
2022/03/12 07:59:18;;;;;;;9.60;4.40;;;1.30;99.30;;;;;;6214710;28;20300;-74
2022/03/12 08:02:23;;;;;;;8.87;4.63;;;1.30;99.90;;;;;;6214206;28;20323;-75
2022/03/12 08:05:29;;;;;;;13.13;3.70;;;1.30;99.70;;;;;;6214598;28;20584;-75
2022/03/12 08:08:37;;;;;;;11.87;3.77;;;1.70;96.30;;;;;;6214221;28;20301;-75
2022/03/12 08:11:43;;;;;;;8.03;3.67;;;1.80;96.50;;;;;;6214437;28;20275;-75
2022/03/12 08:14:48;;;;;;;7.27;3.63;;;1.80;95.20;;;;;;6213836;28;20388;-75
2022/03/12 08:17:53;;;;;;;5.77;3.20;;;2.00;92.70;;;;;;6213700;28;20308;-75
2022/03/12 08:20:59;;;;;;;15.17;3.80;;;2.20;90.90;;;;;;6213807;28;20273;-75
2022/03/12 08:24:09;;;;;;;7.40;3.70;;;2.20;90.40;;;;;;6212543;28;20403;-75
2022/03/12 08:27:15;;;;;;;10.90;3.30;;;2.20;91.10;;;;;;6213458;28;20580;-77
2022/03/12 08:30:20;;;;;;;8.63;3.13;;;2.30;87.40;;;;;;6213943;28;20272;-76
2022/03/12 08:33:25;;;;;;;4.83;3.40;;;2.50;83.20;;;;;;6227732;28;20304;-76
2022/03/12 08:36:31;;;;;;;7.93;3.43;;;2.40;85.50;;;;;;6214005;28;20308;-76
2022/03/12 08:39:38;;;;;;;9.40;3.37;;;2.50;81.30;;;;;;6213066;28;20608;-74
2022/03/12 08:42:44;;;;;;;5.90;3.07;;;2.50;82.50;;;;;;6212660;28;20329;-74
2022/03/12 08:45:50;;;;;;;7.80;3.37;;;2.60;75.70;;;;;;6212406;28;20287;-75
2022/03/12 08:48:56;;;;;;;9.13;4.20;;;2.50;78.70;;;;;;6210047;28;20299;-74
2022/03/12 08:52:01;;;;;;;6.73;3.50;;;2.50;83.80;;;;;;6212723;28;20453;-74
2022/03/12 08:55:09;;;;;;;5.10;3.50;;;2.50;82.30;;;;;;6212953;28;20273;-74
2022/03/12 08:58:15;;;;;;;3.83;3.00;;;2.50;77.80;;;;;;6212276;28;20303;-74
2022/03/12 09:01:21;;;;;;;8.53;3.17;;;3.00;69.20;;;;;;6212391;28;20301;-75
2022/03/12 09:04:31;;;;;;;3.10;2.90;;;3.10;66.30;;;;;;6212836;28;20265;-76
2022/03/12 09:07:37;;;;;;;5.50;2.60;;;2.90;71.60;;;;;;6212131;28;20301;-75
2022/03/12 09:10:45;;;;;;;3.17;2.87;;;3.10;63.80;;;;;;6212785;28;20277;-75
2022/03/12 09:13:51;;;;;;;7.40;3.53;;;3.00;67.70;;;;;;6212298;28;20482;-75
2022/03/12 09:16:56;;;;;;;6.30;2.80;;;3.20;63.30;;;;;;6211866;28;20305;-76
2022/03/12 09:20:01;;;;;;;4.13;3.00;;;3.30;60.40;;;;;;6213175;28;20587;-74
2022/03/12 09:23:07;;;;;;;7.10;2.60;;;3.10;65.40;;;;;;6219717;28;20296;-75
2022/03/12 09:26:17;;;;;;;10.30;2.67;;;3.10;63.90;;;;;;6236249;28;20293;-75
2022/03/12 09:29:22;;;;;;;7.70;3.10;;;3.10;67.10;;;;;;6236146;28;20272;-75
2022/03/12 09:32:28;;;;;;;14.80;3.10;;;3.10;69.70;;;;;;6236351;28;20293;-74
2022/03/12 09:35:34;;;;;;;4.17;2.77;;;3.10;67.00;;;;;;6236478;28;20272;-74
2022/03/12 09:38:40;;;;;;;2.57;2.43;;;3.20;62.90;;;;;;6236199;28;20306;-75
2022/03/12 09:41:47;;;;;;;4.83;2.87;;;3.30;60.80;;;;;;6236161;28;20295;-75
2022/03/12 09:44:53;;;;;;;4.67;2.67;;;3.30;60.00;;;;;;6236801;28;20454;-75
2022/03/12 09:47:59;;;;;;;6.00;3.10;;;3.40;59.00;;;;;;6236111;28;20547;-75
2022/03/12 09:51:04;;;;;;;6.00;2.80;;;3.70;54.00;;;;;;6236217;28;20268;-75
2022/03/12 09:54:12;;;;;;;6.83;2.90;;;3.60;56.80;;;;;;6236557;28;20268;-75
2022/03/12 09:57:19;;;;;;;7.83;3.10;;;3.60;56.00;;;;;;6236162;28;20407;-74
2022/03/12 10:00:26;;;;;;;8.33;2.70;;;3.70;54.90;;;;;;6236183;28;20478;-74
2022/03/12 10:03:32;;;;;;;18.07;2.87;;;3.70;55.20;;;;;;6235570;28;20303;-74
2022/03/12 10:06:40;;;;;;;13.03;3.10;;;3.70;55.50;;;;;;6218381;28;20300;-74
2022/03/12 10:09:47;;;;;;;11.70;2.97;;;3.80;54.30;;;;;;6211901;28;20468;-76
2022/03/12 10:12:54;;;;;;;3.00;2.80;;;3.90;53.60;;;;;;6211617;28;20574;-74
2022/03/12 10:16:00;;;;;;;4.23;2.27;;;4.30;50.70;;;;;;6211711;28;20275;-75
2022/03/12 10:19:06;;;;;;;12.57;2.83;;;4.30;50.20;;;;;;6212188;28;20289;-75
2022/03/12 10:22:16;;;;;;;8.10;3.20;;;4.30;51.20;;;;;;6211291;28;20300;-74
2022/03/12 10:25:22;;;;;;;6.57;2.60;;;4.40;51.70;;;;;;6211450;28;20273;-75
2022/03/12 10:28:34;;;;;;;10.27;3.00;;;4.30;53.10;;;;;;6211531;28;20591;-74
2022/03/12 10:31:40;;;;;;;15.10;3.20;;;4.60;50.40;;;;;;6211461;28;20301;-75
2022/03/12 10:34:52;;;;;;;14.83;2.87;;;4.70;49.30;;;;;;6211288;28;20272;-74
2022/03/12 10:37:58;;;;;;;4.43;2.40;;;5.00;48.90;;;;;;6211282;28;20307;-75
2022/03/12 10:41:03;;;;;;;5.20;2.83;;;5.00;48.60;;;;;;6210727;28;20295;-75
2022/03/12 10:44:11;;;;;;;29.03;4.13;;;5.00;48.60;;;;;;6212045;28;20281;-75
2022/03/12 10:47:19;;;;;;;9.30;2.77;;;5.00;48.50;;;;;;6212582;28;20593;-77
2022/03/12 10:50:27;;;;;;;6.20;2.83;;;5.40;45.70;;;;;;6217465;28;20277;-78
2022/03/12 10:53:32;;;;;;;3.27;2.57;;;5.30;47.00;;;;;;6215666;28;20296;-77
2022/03/12 10:56:44;;;;;;;5.77;2.80;;;5.20;47.80;;;;;;6204775;28;20575;-74
2022/03/12 10:59:55;;;;;;;11.40;3.93;;;5.20;47.70;;;;;;6191674;28;20301;-75
2022/03/12 11:03:03;;;;;;;16.13;3.40;;;5.30;47.20;;;;;;6191374;28;20333;-74
2022/03/12 11:06:10;;;;;;;7.27;3.10;;;5.30;47.00;;;;;;6216713;28;20594;-75
2022/03/12 11:09:18;;;;;;;6.97;2.80;;;5.40;47.20;;;;;;6240058;28;20285;-75
2022/03/12 11:12:30;;;;;;;9.57;3.20;;;5.40;47.00;;;;;;6239209;28;20305;-74
2022/03/12 11:15:42;;;;;;;2.80;2.60;;;5.50;46.60;;;;;;6239911;28;20265;-77
2022/03/12 11:19:07;;;;;;;4.03;2.67;;;5.70;44.90;;;;;;6238735;28;20298;-74
2022/03/12 11:22:18;;;;;;;3.80;2.50;;;5.80;45.50;;;;;;6239148;28;20297;-76
2022/03/12 11:25:24;;;;;;;8.60;3.10;;;5.80;46.30;;;;;;6238594;28;20279;-77
2022/03/12 11:28:30;;;;;;;10.13;3.30;;;5.80;45.90;;;;;;6238516;28;20305;-75
2022/03/12 11:31:48;;;;;;;9.47;2.70;;;5.80;45.60;;;;;;6239367;28;20302;-77
2022/03/12 11:35:07;;;;;;;12.40;3.50;;;5.80;45.60;;;;;;6240003;28;20274;-74
2022/03/12 11:38:18;;;;;;;11.27;3.50;;;5.70;46.90;;;;;;6238715;28;20299;-76
2022/03/12 11:41:27;;;;;;;13.23;2.90;;;5.80;45.80;;;;;;6238796;28;20516;-74
2022/03/12 11:44:33;;;;;;;9.50;2.90;;;6.10;43.60;;;;;;6239139;28;20278;-77
2022/03/12 11:47:41;;;;;;;6.53;3.00;;;6.10;44.30;;;;;;6238112;28;20295;-75
2022/03/12 11:50:46;;;;;;;12.90;2.67;;;6.10;44.60;;;;;;6238878;28;20573;-74
2022/03/12 11:53:55;;;;;;;13.80;2.73;;;6.10;44.40;;;;;;6238180;28;20293;-74
2022/03/12 11:57:01;;;;;;;8.37;2.77;;;6.10;44.40;;;;;;6238352;28;20461;-75
2022/03/12 12:00:18;;;;;;;10.67;3.57;;;6.20;44.50;;;;;;6237984;28;20505;-74
2022/03/12 12:03:25;;;;;;;5.63;2.53;;;6.30;43.80;;;;;;6236745;28;20298;-74
2022/03/12 12:06:33;;;;;;;4.20;2.47;;;6.40;43.70;;;;;;6238179;28;20315;-74
2022/03/12 12:09:38;;;;;;;6.67;2.77;;;6.80;42.10;;;;;;6238627;28;20558;-74
2022/03/12 12:12:45;;;;;;;8.07;2.50;;;6.60;43.70;;;;;;6237649;28;20311;-74
2022/03/12 12:15:51;;;;;;;7.17;2.63;;;6.50;44.10;;;;;;6238232;28;20278;-74
2022/03/12 12:18:58;;;;;;;5.87;2.30;;;6.40;45.00;;;;;;6236997;28;20290;-75
2022/03/12 12:22:03;;;;;;;8.90;3.10;;;6.40;45.00;;;;;;6237849;28;20319;-76
2022/03/12 12:25:10;;;;;;;10.60;3.20;;;6.50;45.10;;;;;;6237882;28;20279;-76
2022/03/12 12:28:20;;;;;;;12.37;3.60;;;6.50;44.30;;;;;;6237304;28;20298;-76
2022/03/12 12:31:27;;;;;;;8.87;2.90;;;6.50;44.70;;;;;;6237362;28;20299;-76
2022/03/12 12:34:35;;;;;;;11.37;3.00;;;6.50;44.10;;;;;;6238024;28;20274;-75
2022/03/12 12:37:50;;;;;;;3.60;2.57;;;6.60;46.10;;;;;;6237315;28;20590;-76
2022/03/12 12:40:55;;;;;;;5.57;2.77;;;6.60;43.70;;;;;;6237779;28;20614;-76
2022/03/12 12:44:07;;;;;;;6.27;2.50;;;6.60;43.80;;;;;;6236688;28;20279;-76
2022/03/12 12:47:18;;;;;;;5.67;2.70;;;6.70;43.20;;;;;;6237125;28;20557;-76
2022/03/12 12:50:26;;;;;;;21.83;3.33;;;6.60;43.80;;;;;;6237563;28;20279;-75
2022/03/12 12:53:33;;;;;;;13.07;3.10;;;6.60;43.90;;;;;;6236790;28;20312;-75
2022/03/12 12:56:41;;;;;;;12.33;3.00;;;6.70;42.70;;;;;;6237234;28;20300;-76
2022/03/12 12:59:48;;;;;;;20.20;2.70;;;6.70;42.00;;;;;;6237755;28;20275;-76
2022/03/12 13:02:53;;;;;;;17.30;3.17;;;6.80;42.40;;;;;;6236808;28;20303;-76
2022/03/12 13:06:01;;;;;;;12.53;2.70;;;6.70;45.00;;;;;;6236681;28;20312;-76
2022/03/12 13:09:09;;;;;;;8.23;2.80;;;6.80;42.90;;;;;;6237110;28;20279;-76
2022/03/12 13:12:16;;;;;;;7.60;2.70;;;6.80;44.00;;;;;;6236646;28;20299;-76
2022/03/12 13:15:25;;;;;;;8.27;2.70;;;6.80;42.70;;;;;;6237947;28;20280;-76
2022/03/12 13:18:39;;;;;;;12.60;3.10;;;6.80;42.10;;;;;;6236908;28;20298;-76
2022/03/12 13:21:57;;;;;;;10.73;2.90;;;6.90;43.00;;;;;;6237200;28;20307;-78
2022/03/12 13:25:06;;;;;;;25.77;4.03;;;6.70;45.30;;;;;;6237789;28;20275;-78
2022/03/12 13:28:15;;;;;;;22.47;3.30;;;6.80;42.50;;;;;;6235561;28;20303;-74
2022/03/12 13:31:30;;;;;;;32.33;3.77;;;6.90;43.10;;;;;;6236523;28;20299;-76
2022/03/12 13:34:42;;;;;;;28.07;3.90;;;6.80;45.40;;;;;;6236624;28;20292;-74
2022/03/12 13:37:50;;;;;;;13.33;2.50;;;6.90;43.20;;;;;;6236329;28;20318;-75
2022/03/12 13:40:55;;;;;;;15.97;3.10;;;6.80;45.00;;;;;;6236415;28;20295;-75
2022/03/12 13:44:01;;;;;;;23.17;3.47;;;7.00;42.10;;;;;;6236134;28;20452;-75
2022/03/12 13:47:08;;;;;;;18.47;2.83;;;7.00;41.90;;;;;;6234889;28;20324;-75
2022/03/12 13:50:14;;;;;;;10.40;2.60;;;7.00;43.80;;;;;;6236584;28;20319;-76
2022/03/12 13:53:21;;;;;;;11.33;2.57;;;7.00;46.20;;;;;;6236345;28;20301;-76
2022/03/12 13:56:28;;;;;;;9.20;2.30;;;7.10;43.80;;;;;;6236106;28;20291;-76
2022/03/12 13:59:34;;;;;;;4.37;2.27;;;7.30;41.10;;;;;;6236326;28;20562;-76
2022/03/12 14:02:48;;;;;;;9.23;2.60;;;7.20;44.60;;;;;;6235597;28;20300;-76
2022/03/12 14:05:53;;;;;;;10.50;2.77;;;7.10;45.50;;;;;;6235845;28;20590;-77
2022/03/12 14:09:01;;;;;;;14.60;2.70;;;7.00;45.10;;;;;;6235341;28;20615;-77
2022/03/12 14:12:08;;;;;;;15.83;2.57;;;7.10;43.20;;;;;;6236660;28;20296;-76
2022/03/12 14:15:15;;;;;;;7.07;2.60;;;7.00;45.40;;;;;;6237479;28;20279;-76
2022/03/12 14:18:26;;;;;;;18.87;4.00;;;7.00;48.00;;;;;;6236015;28;20304;-77
2022/03/12 14:21:42;;;;;;;8.10;2.43;;;6.90;45.00;;;;;;6235320;28;20613;-77
2022/03/12 14:24:52;;;;;;;5.07;2.27;;;6.80;47.10;;;;;;6241153;28;20268;-76
2022/03/12 14:27:57;;;;;;;13.20;2.70;;;6.80;52.00;;;;;;6240533;28;20296;-76
2022/03/12 14:31:03;;;;;;;19.57;3.40;;;6.90;48.10;;;;;;6240172;28;20272;-76
2022/03/12 14:34:12;;;;;;;5.30;2.27;;;6.60;50.40;;;;;;6240962;28;20277;-76
2022/03/12 14:37:19;;;;;;;7.07;2.17;;;6.40;53.10;;;;;;6240394;28;20304;-76
2022/03/12 14:40:26;;;;;;;6.57;2.20;;;6.40;52.20;;;;;;6241164;28;20271;-76
2022/03/12 14:43:32;;;;;;;5.43;2.37;;;6.50;48.20;;;;;;6240517;28;20300;-76
2022/03/12 14:46:41;;;;;;;7.77;2.70;;;6.30;51.20;;;;;;6240177;28;20304;-77
2022/03/12 14:49:52;;;;;;;4.83;2.40;;;6.40;49.00;;;;;;6240384;28;20272;-76
2022/03/12 14:52:58;;;;;;;9.57;2.47;;;6.50;47.90;;;;;;6240133;28;20334;-76
2022/03/12 14:56:05;;;;;;;5.97;2.17;;;6.40;50.30;;;;;;6239459;28;20272;-76
2022/03/12 14:59:11;;;;;;;10.83;2.20;;;6.30;47.00;;;;;;6240442;28;20276;-77
2022/03/12 15:02:20;;;;;;;4.20;2.20;;;6.10;52.50;;;;;;6239818;28;20300;-76
2022/03/12 15:05:25;;;;;;;4.63;2.50;;;6.10;52.20;;;;;;6239864;28;20311;-77
2022/03/12 15:08:32;;;;;;;15.17;2.40;;;6.10;48.80;;;;;;6239424;28;20299;-76
2022/03/12 15:11:40;;;;;;;7.23;2.20;;;5.80;54.10;;;;;;6239617;28;20562;-76
2022/03/12 15:14:46;;;;;;;6.10;2.17;;;5.90;53.30;;;;;;6240845;28;20272;-76
2022/03/12 15:17:53;;;;;;;3.93;2.50;;;5.90;52.20;;;;;;6239800;28;20300;-76
2022/03/12 15:20:59;;;;;;;11.50;2.50;;;5.80;52.80;;;;;;6238879;28;20274;-76
2022/03/12 15:24:11;;;;;;;12.60;2.40;;;6.10;46.70;;;;;;6239924;28;20291;-76
2022/03/12 15:27:18;;;;;;;25.80;4.87;;;6.00;47.60;;;;;;6242524;28;20300;-77
2022/03/12 15:30:31;;;;;;;22.73;6.70;;;5.80;50.80;;;;;;6240642;28;20280;-77
2022/03/12 15:33:39;;;;;;;10.13;4.47;;;5.80;51.60;;;;;;6239048;28;20614;-77
2022/03/12 15:36:48;;;;;;;9.90;2.70;;;5.70;54.90;;;;;;6239418;28;20299;-76
2022/03/12 15:39:57;;;;;;;7.30;2.70;;;5.70;49.30;;;;;;6239686;28;20569;-77
2022/03/12 15:43:05;;;;;;;10.13;2.83;;;5.70;49.50;;;;;;6239338;28;20324;-77
2022/03/12 15:46:15;;;;;;;14.47;2.87;;;5.60;52.60;;;;;;6238926;28;20279;-77
2022/03/12 15:49:20;;;;;;;6.13;2.40;;;5.50;53.00;;;;;;6239668;28;20276;-77
2022/03/12 15:52:27;;;;;;;12.63;2.53;;;5.50;51.10;;;;;;6238556;28;20295;-77
2022/03/12 15:55:32;;;;;;;15.03;2.47;;;5.40;53.00;;;;;;6239241;28;20275;-77
2022/03/12 15:58:42;;;;;;;5.03;2.20;;;5.40;51.00;;;;;;6239103;28;20304;-77
2022/03/12 16:01:47;;;;;;;11.70;2.60;;;5.50;49.20;;;;;;6238926;28;20303;-77
2022/03/12 16:04:53;;;;;;;3.63;2.13;;;5.50;49.70;;;;;;6239066;28;20304;-77
2022/03/12 16:07:59;;;;;;;3.27;2.53;;;5.60;47.60;;;;;;6238819;28;20303;-77
2022/03/12 16:11:08;;;;;;;20.83;3.03;;;5.50;49.70;;;;;;6238430;28;20278;-77
2022/03/12 16:14:20;;;;;;;9.23;3.10;;;5.50;48.90;;;;;;6240553;28;20283;-77
2022/03/12 16:17:28;;;;;;;8.90;2.70;;;5.40;53.20;;;;;;6239949;28;20318;-77
2022/03/12 16:20:34;;;;;;;8.50;2.50;;;5.30;53.10;;;;;;6239870;28;20286;-77